Terminal Aerodrome Forecast
Issued by NWS

Home | Current Version | Previous Version | Text Only | Print | Product List | Glossary Off
Versions: 1 2 3 4 5 6 7 8 9 10 11 12 13 14 15 16 17 18 19 20 21 22 23 24 25 26 27

000
FTUS43 KLOT 061052 AAB
TAFDPA
TAF AMD
KDPA 061052Z 0611/0706 VRB03KT 1SM BR OVC004
      TEMPO 0611/0613 1/4SM FG
     FM061400 VRB02KT 3SM BR OVC006
     FM061800 27010KT P6SM BKN020
     FM062100 27012G18KT P6SM SCT030=

USA.gov is the U.S. government's official web portal to all federal, state and local government web resources and services.